Time;durP1;ratioP1;P1;durP2;ratioP2;P2;SDS_P1;SDS_P2;PMS_P1;PMS_P2;Temp;Humidity;BMP_temperature;BMP_pressure;BME280_temperature;BME280_humidity;BME280_pressure;Samples;Min_cycle;Max_cycle;Signal;HPM_P1;HPM_P2
2022/08/16 00:06:48;;;;;;;7.75;6.63;;;;;;;21.70;92.24;100377.81;20950245;28;20424;-63
2022/08/16 00:17:10;;;;;;;14.68;11.23;;;;;;;21.80;91.50;100370.44;20947732;28;20036;-64
2022/08/16 00:27:40;;;;;;;13.87;11.80;;;;;;;21.45;96.51;100358.63;20952843;28;20768;-64
2022/08/16 00:38:07;;;;;;;14.57;12.52;;;;;;;21.45;95.78;100360.44;20961049;28;20060;-64
2022/08/16 00:48:50;;;;;;;14.98;12.75;;;;;;;21.39;97.35;100369.13;20949162;28;20048;-64
2022/08/16 00:59:14;;;;;;;22.30;16.52;;;;;;;21.39;98.18;100361.16;20926334;28;1095753;-64
2022/08/16 01:09:38;;;;;;;21.88;15.43;;;;;;;21.32;95.38;100365.53;20954005;28;20052;-63
2022/08/16 01:20:07;;;;;;;18.63;14.85;;;;;;;21.43;93.65;100383.66;20950258;28;20559;-64
2022/08/16 01:30:49;;;;;;;18.52;15.15;;;;;;;21.25;93.01;100385.78;20950488;28;20123;-65
2022/08/16 01:41:14;;;;;;;17.00;14.35;;;;;;;21.18;95.54;100387.50;20947604;28;20131;-64
2022/08/16 01:51:43;;;;;;;17.25;15.32;;;;;;;21.20;90.41;100382.03;20944260;28;20147;-64
2022/08/16 02:02:05;;;;;;;16.85;14.38;;;;;;;21.13;94.61;100397.00;20971157;28;20047;-64
2022/08/16 02:12:46;;;;;;;16.27;13.43;;;;;;;21.07;94.50;100403.00;20966201;28;20048;-64
2022/08/16 02:23:17;;;;;;;17.63;13.80;;;;;;;21.03;92.71;100397.22;20965422;28;20044;-64
2022/08/16 02:33:39;;;;;;;16.02;13.30;;;;;;;20.82;95.12;100390.91;20953204;28;20049;-63
2022/08/16 02:44:05;;;;;;;15.75;12.73;;;;;;;20.79;95.38;100394.75;20965775;28;20409;-63
2022/08/16 02:54:27;;;;;;;15.30;12.35;;;;;;;20.72;97.55;100380.47;20968830;28;20691;-63
2022/08/16 03:04:49;;;;;;;17.13;12.85;;;;;;;20.80;96.31;100379.66;20953117;28;20063;-63
2022/08/16 03:15:16;;;;;;;16.70;11.85;;;;;;;20.85;95.34;100383.41;20939707;28;20078;-63
2022/08/16 03:25:38;;;;;;;16.20;13.02;;;;;;;20.69;96.84;100377.38;20963327;28;20040;-65
2022/08/16 03:36:05;;;;;;;17.92;13.60;;;;;;;20.78;96.27;100371.88;20965702;28;20068;-64
2022/08/16 03:46:47;;;;;;;18.42;15.02;;;;;;;20.84;96.57;100376.47;20986663;28;20094;-65
2022/08/16 03:57:10;;;;;;;20.25;15.45;;;;;;;20.90;95.21;100375.78;20959232;28;20496;-64
2022/08/16 04:07:37;;;;;;;17.88;15.50;;;;;;;20.96;94.22;100385.66;20955599;28;20052;-63
2022/08/16 04:18:00;;;;;;;17.67;15.35;;;;;;;20.71;95.99;100386.78;20954988;28;20044;-64
2022/08/16 04:28:22;;;;;;;18.10;14.93;;;;;;;20.97;95.55;100389.16;20970213;28;20110;-65
2022/08/16 04:39:04;;;;;;;18.83;15.77;;;;;;;20.90;95.08;100404.09;20985739;28;20440;-65
2022/08/16 04:49:28;;;;;;;20.35;16.30;;;;;;;20.95;95.86;100418.50;20961735;28;20075;-65
2022/08/16 05:00:14;;;;;;;21.33;16.13;;;;;;;21.12;95.22;100419.22;20946582;28;20056;-65
2022/08/16 05:10:54;;;;;;;20.77;15.80;;;;;;;21.02;97.99;100430.03;20947031;28;20555;-64
2022/08/16 05:21:21;;;;;;;20.88;16.13;;;;;;;21.06;97.44;100427.84;20953468;28;20441;-64
2022/08/16 05:31:42;;;;;;;20.45;16.17;;;;;;;21.18;95.41;100442.34;20976343;28;20060;-64
2022/08/16 05:42:13;;;;;;;21.95;16.95;;;;;;;21.31;97.16;100432.00;20966867;28;20047;-64
2022/08/16 05:52:40;;;;;;;23.38;17.02;;;;;;;21.39;95.46;100435.44;20964025;28;20181;-64
2022/08/16 06:03:05;;;;;;;25.00;19.00;;;;;;;21.70;94.92;100441.50;20967225;28;20036;-64
2022/08/16 06:13:34;;;;;;;23.55;18.75;;;;;;;22.06;93.80;100445.16;20955363;28;20045;-65
2022/08/16 06:23:55;;;;;;;27.23;18.35;;;;;;;22.13;94.02;100459.34;20957754;28;20041;-64
2022/08/16 06:34:21;;;;;;;23.23;18.58;;;;;;;22.14;93.91;100458.34;20966971;28;20047;-65
2022/08/16 06:45:03;;;;;;;21.20;17.17;;;;;;;22.32;92.20;100461.47;20963737;28;20549;-65
2022/08/16 06:55:26;;;;;;;25.02;18.73;;;;;;;22.29;93.40;100473.28;20964521;28;20074;-65
2022/08/16 07:05:56;;;;;;;24.50;19.00;;;;;;;22.44;90.98;100488.25;20952265;28;20094;-65
2022/08/16 07:16:19;;;;;;;22.35;18.42;;;;;;;22.61;91.23;100499.56;20962496;28;20049;-65
2022/08/16 07:26:41;;;;;;;24.00;17.60;;;;;;;22.68;92.15;100505.75;20962844;28;20594;-65
2022/08/16 07:37:10;;;;;;;21.55;17.77;;;;;;;22.74;88.52;100511.16;20950838;28;20036;-64
2022/08/16 07:47:35;;;;;;;24.35;16.90;;;;;;;22.81;88.69;100522.72;20949398;28;20048;-65
2022/08/16 07:57:57;;;;;;;21.92;15.80;;;;;;;22.93;86.40;100525.72;20953494;28;20683;-65
2022/08/16 08:08:24;;;;;;;22.42;13.07;;;;;;;23.07;85.85;100533.75;20951999;28;20049;-63
2022/08/16 08:19:11;;;;;;;16.83;13.85;;;;;;;23.15;85.79;100536.28;20954986;28;20123;-63
2022/08/16 08:29:34;;;;;;;23.23;14.55;;;;;;;23.39;82.50;100541.28;20957163;28;20068;-63
2022/08/16 08:39:58;;;;;;;19.40;14.18;;;;;;;23.55;82.75;100543.72;20954121;28;20048;-64
2022/08/16 08:50:20;;;;;;;22.13;15.18;;;;;;;23.70;82.35;100542.66;20949641;28;20053;-63
2022/08/16 09:00:52;;;;;;;21.70;14.65;;;;;;;23.85;81.75;100548.78;20959992;28;20041;-62
2022/08/16 09:11:22;;;;;;;23.25;12.98;;;;;;;24.14;79.50;100561.13;20966958;28;20048;-63
2022/08/16 09:22:02;;;;;;;18.87;12.30;;;;;;;24.43;78.60;100567.94;20977711;28;20045;-63
2022/08/16 09:32:24;;;;;;;18.58;12.18;;;;;;;24.90;75.22;100568.06;20969025;28;20286;-64
2022/08/16 09:42:54;;;;;;;18.02;8.23;;;;;;;25.22;74.83;100580.78;20967095;28;20087;-64
2022/08/16 09:53:22;;;;;;;9.57;6.63;;;;;;;25.61;67.36;100575.59;20958514;28;20163;-64
2022/08/16 10:03:43;;;;;;;8.43;5.13;;;;;;;25.99;66.96;100566.03;20976565;28;20047;-61
2022/08/16 10:14:25;;;;;;;8.43;4.70;;;;;;;26.34;62.63;100562.97;20970721;28;20440;-65
2022/08/16 10:24:53;;;;;;;8.85;5.57;;;;;;;26.67;62.14;100564.59;20964393;28;20064;-62
2022/08/16 10:35:20;;;;;;;9.68;4.97;;;;;;;26.79;60.21;100573.63;20960880;28;20690;-62
2022/08/16 10:45:43;;;;;;;8.45;5.43;;;;;;;27.25;60.89;100579.72;20960582;28;20056;-62
2022/08/16 10:56:23;;;;;;;7.38;5.30;;;;;;;27.58;60.02;100585.75;20963131;28;20055;-63
2022/08/16 11:07:04;;;;;;;9.23;6.05;;;;;;;27.80;60.21;100589.81;20963486;28;20044;-63
2022/08/16 11:17:28;;;;;;;9.77;6.10;;;;;;;27.55;59.69;100575.47;20965624;28;20417;-63
2022/08/16 11:27:55;;;;;;;9.23;5.55;;;;;;;27.67;60.49;100584.50;20957594;28;20066;-63
2022/08/16 11:38:20;;;;;;;6.57;4.32;;;;;;;28.17;56.90;100591.59;20956584;28;20057;-64
2022/08/16 11:49:04;;;;;;;6.50;3.42;;;;;;;29.20;48.74;100606.78;20948002;28;20395;-64
2022/08/16 11:59:32;;;;;;;8.43;3.53;;;;;;;28.04;52.77;100608.59;20962865;28;20143;-64
2022/08/16 12:09:56;;;;;;;5.75;3.40;;;;;;;28.63;49.46;100604.44;20940053;28;20087;-63
2022/08/16 12:20:24;;;;;;;5.50;3.63;;;;;;;28.75;51.31;100600.00;20949526;28;20512;-64
2022/08/16 12:30:51;;;;;;;7.32;3.40;;;;;;;29.09;48.21;100591.41;20957442;28;20057;-63
2022/08/16 12:41:14;;;;;;;6.15;3.80;;;;;;;29.15;48.72;100597.75;20950698;28;20048;-64
2022/08/16 12:51:47;;;;;;;3.90;3.17;;;;;;;29.30;46.50;100601.69;20944449;28;20430;-65
2022/08/16 13:02:20;;;;;;;4.93;3.53;;;;;;;29.04;46.69;100599.31;20939090;28;20527;-64
2022/08/16 13:12:54;;;;;;;5.90;3.15;;;;;;;29.40;47.44;100612.75;20932175;28;20048;-64
2022/08/16 13:23:17;;;;;;;5.85;3.28;;;;;;;29.28;46.82;100609.16;20935155;28;20044;-64
2022/08/16 13:33:39;;;;;;;5.05;3.25;;;;;;;29.53;45.91;100609.94;20922081;28;20565;-64
2022/08/16 13:44:02;;;;;;;4.85;3.50;;;;;;;29.65;45.64;100618.88;20934088;28;20460;-64
2022/08/16 13:54:29;;;;;;;10.43;4.03;;;;;;;28.94;46.88;100620.50;20948111;28;20139;-64
2022/08/16 14:04:52;;;;;;;5.57;3.58;;;;;;;28.84;48.97;100611.31;20944064;28;20041;-64
2022/08/16 14:15:25;;;;;;;3.55;3.20;;;;;;;28.93;47.36;100608.13;20945375;28;20172;-63
2022/08/16 14:25:51;;;;;;;3.60;2.60;;;;;;;28.89;48.48;100614.97;20944391;28;20118;-64
2022/08/16 14:36:15;;;;;;;4.72;3.35;;;;;;;29.43;46.75;100602.41;20950267;28;20497;-64
2022/08/16 14:46:50;;;;;;;3.80;2.65;;;;;;;29.67;46.43;100606.81;20933691;28;21924;-61
2022/08/16 14:57:14;;;;;;;4.45;2.90;;;;;;;29.42;44.72;100602.59;20939418;28;20048;-65
2022/08/16 15:07:36;;;;;;;6.25;3.28;;;;;;;29.74;43.35;100612.94;20962765;28;20044;-65
2022/08/16 15:18:06;;;;;;;3.45;2.78;;;;;;;29.53;42.94;100620.69;20946652;28;20047;-64
2022/08/16 15:28:35;;;;;;;4.40;2.67;;;;;;;30.29;42.59;100617.13;20936706;28;20044;-65
2022/08/16 15:38:58;;;;;;;4.70;2.50;;;;;;;29.65;43.69;100616.16;20960686;28;20131;-64
2022/08/16 15:49:42;;;;;;;3.95;2.70;;;;;;;29.80;41.59;100633.53;20937012;28;20052;-64
2022/08/16 16:00:08;;;;;;;4.13;2.50;;;;;;;29.87;41.60;100626.22;20941386;28;20833;-63
2022/08/16 16:10:36;;;;;;;10.00;2.67;;;;;;;29.42;44.25;100629.47;20922254;28;20441;-63
2022/08/16 16:21:10;;;;;;;5.15;3.20;;;;;;;29.73;42.84;100634.66;20933353;28;20048;-65
2022/08/16 16:31:42;;;;;;;4.68;2.78;;;;;;;29.76;45.47;100640.44;20923893;28;20049;-62
2022/08/16 16:42:19;;;;;;;5.43;2.80;;;;;;;29.08;44.47;100640.81;20945601;28;20601;-62
2022/08/16 16:52:55;;;;;;;5.43;2.97;;;;;;;29.11;44.99;100651.06;20938709;28;20737;-63
2022/08/16 17:03:18;;;;;;;10.93;3.10;;;;;;;28.65;45.53;100652.53;20938410;28;20098;-63
2022/08/16 17:13:41;;;;;;;4.82;2.50;;;;;;;28.66;47.65;100657.69;20934854;28;20374;-62
2022/08/16 17:24:04;;;;;;;4.63;3.33;;;;;;;28.53;45.63;100671.19;20937090;28;20048;-64
2022/08/16 17:34:39;;;;;;;5.93;4.13;;;;;;;28.10;52.42;100687.34;20955985;28;20041;-64
2022/08/16 17:45:07;;;;;;;9.35;4.85;;;;;;;28.06;54.52;100689.66;20949790;28;20127;-63
2022/08/16 17:55:32;;;;;;;6.07;4.70;;;;;;;27.88;56.95;100707.47;20961830;28;20644;-64
2022/08/16 18:05:54;;;;;;;5.30;4.47;;;;;;;27.57;58.81;100728.78;20954406;28;20500;-63
2022/08/16 18:16:16;;;;;;;8.82;6.70;;;;;;;27.01;64.66;100754.38;20960483;28;20513;-62
2022/08/16 18:26:38;;;;;;;14.70;8.02;;;;;;;26.57;70.93;100762.16;20960372;28;20044;-62
2022/08/16 18:37:00;;;;;;;13.38;8.85;;;;;;;26.52;72.39;100769.97;20961713;28;20056;-63
2022/08/16 18:47:21;;;;;;;17.40;9.32;;;;;;;26.29;73.19;100773.19;20950358;28;20048;-60
2022/08/16 18:57:43;;;;;;;12.20;9.52;;;;;;;25.98;76.24;100783.53;20959632;28;20561;-61
2022/08/16 19:08:05;;;;;;;20.77;12.73;;;;;;;25.61;79.58;100795.44;20956050;28;20048;-61
2022/08/16 19:18:28;;;;;;;21.55;12.63;;;;;;;25.34;82.00;100808.78;20951015;28;20137;-60
2022/08/16 19:28:57;;;;;;;22.45;13.93;;;;;;;25.43;81.17;100812.97;20954839;28;20040;-61
2022/08/16 19:39:23;;;;;;;23.45;14.30;;;;;;;24.62;85.75;100825.94;20962557;28;20045;-60
2022/08/16 19:49:52;;;;;;;20.67;14.10;;;;;;;24.71;85.33;100835.50;20950965;28;20052;-60
2022/08/16 20:00:17;;;;;;;21.55;14.60;;;;;;;24.60;85.92;100854.63;20957574;28;20378;-62
2022/08/16 20:10:40;;;;;;;21.08;13.35;;;;;;;24.28;87.68;100850.72;20954476;28;20049;-60
2022/08/16 20:21:03;;;;;;;23.17;13.40;;;;;;;24.33;87.36;100858.97;20964195;28;20646;-61
2022/08/16 20:31:24;;;;;;;21.25;12.82;;;;;;;24.17;88.33;100869.81;20954221;28;20056;-61
2022/08/16 20:41:46;;;;;;;23.00;13.27;;;;;;;24.31;86.34;100866.31;20954675;28;20060;-61
2022/08/16 20:52:10;;;;;;;21.00;12.75;;;;;;;24.10;87.57;100879.59;20951103;28;20044;-62
2022/08/16 21:02:32;;;;;;;24.13;13.93;;;;;;;23.45;91.38;100882.03;20961497;28;20037;-61
2022/08/16 21:13:02;;;;;;;20.63;13.50;;;;;;;23.55;90.25;100903.09;20963978;28;20123;-62
2022/08/16 21:23:23;;;;;;;20.48;13.95;;;;;;;23.60;89.89;100908.69;20966184;28;20060;-62
2022/08/16 21:33:45;;;;;;;24.00;13.98;;;;;;;23.55;89.83;100911.09;20966369;28;20052;-62
2022/08/16 21:44:15;;;;;;;18.20;13.65;;;;;;;23.30;89.46;100901.63;20963193;28;20052;-62
2022/08/16 21:54:37;;;;;;;22.13;14.85;;;;;;;23.33;89.38;100906.59;20964813;28;20037;-61
2022/08/16 22:04:59;;;;;;;20.83;14.65;;;;;;;23.06;91.11;100919.63;20966038;28;20056;-62
2022/08/16 22:15:24;;;;;;;22.10;15.38;;;;;;;22.66;93.53;100933.09;20957009;28;20049;-60
2022/08/16 22:25:47;;;;;;;24.27;17.58;;;;;;;22.37;96.59;100937.38;20962836;28;20049;-61
2022/08/16 22:36:09;;;;;;;23.20;16.20;;;;;;;22.31;97.23;100948.63;20971566;28;20693;-61
2022/08/16 22:46:32;;;;;;;27.58;16.73;;;;;;;22.49;95.46;100944.78;20959947;28;20384;-60
2022/08/16 22:56:55;;;;;;;23.08;16.83;;;;;;;22.15;97.46;100941.56;20958203;28;20037;-60
2022/08/16 23:07:16;;;;;;;27.80;17.02;;;;;;;22.06;98.73;100955.03;20960336;28;20063;-60
2022/08/16 23:17:38;;;;;;;26.17;17.70;;;;;;;21.85;100.00;100946.75;20953372;28;20056;-61
2022/08/16 23:28:00;;;;;;;28.02;18.42;;;;;;;21.75;100.00;100936.31;20955945;28;20037;-61
2022/08/16 23:38:25;;;;;;;36.20;18.95;;;;;;;21.97;97.63;100937.47;20959116;28;20501;-60
2022/08/16 23:48:59;;;;;;;23.92;18.77;;;;;;;21.77;98.96;100928.19;20943190;28;20071;-60
2022/08/16 23:59:41;;;;;;;29.65;20.15;;;;;;;21.43;100.00;100919.53;20957086;28;20056;-60
